sensor_id;sensor_type;location;lat;lon;timestamp;temperature;humidity
10788;DHT22;5446;50.826;4.380;2023-04-24T00:01:48;9.40;99.90
10788;DHT22;5446;50.826;4.380;2023-04-24T00:04:14;9.40;99.90
10788;DHT22;5446;50.826;4.380;2023-04-24T00:06:42;9.40;99.90
10788;DHT22;5446;50.826;4.380;2023-04-24T00:09:09;9.30;99.90
10788;DHT22;5446;50.826;4.380;2023-04-24T00:11:36;9.30;99.90
10788;DHT22;5446;50.826;4.380;2023-04-24T00:14:02;9.30;99.90
10788;DHT22;5446;50.826;4.380;2023-04-24T00:16:28;9.30;99.90
10788;DHT22;5446;50.826;4.380;2023-04-24T00:18:54;9.20;99.90
10788;DHT22;5446;50.826;4.380;2023-04-24T00:21:20;9.20;99.90
10788;DHT22;5446;50.826;4.380;2023-04-24T00:23:47;9.10;99.90
10788;DHT22;5446;50.826;4.380;2023-04-24T00:26:13;9.10;99.90
10788;DHT22;5446;50.826;4.380;2023-04-24T00:28:39;9.10;99.90
10788;DHT22;5446;50.826;4.380;2023-04-24T00:31:05;9.10;99.90
10788;DHT22;5446;50.826;4.380;2023-04-24T00:33:31;9.10;99.90
10788;DHT22;5446;50.826;4.380;2023-04-24T00:35:57;9.10;99.90
10788;DHT22;5446;50.826;4.380;2023-04-24T00:38:23;9.10;99.90
10788;DHT22;5446;50.826;4.380;2023-04-24T00:40:49;9.00;99.90
10788;DHT22;5446;50.826;4.380;2023-04-24T00:43:19;9.00;99.90
10788;DHT22;5446;50.826;4.380;2023-04-24T00:45:45;9.10;99.90
10788;DHT22;5446;50.826;4.380;2023-04-24T00:48:13;9.00;99.90
10788;DHT22;5446;50.826;4.380;2023-04-24T00:50:40;9.00;99.90
10788;DHT22;5446;50.826;4.380;2023-04-24T00:53:07;9.00;99.90
10788;DHT22;5446;50.826;4.380;2023-04-24T00:55:33;9.00;99.90
10788;DHT22;5446;50.826;4.380;2023-04-24T00:57:59;9.00;99.90
10788;DHT22;5446;50.826;4.380;2023-04-24T01:00:25;9.10;99.90
10788;DHT22;5446;50.826;4.380;2023-04-24T01:02:53;9.10;99.90
10788;DHT22;5446;50.826;4.380;2023-04-24T01:05:19;9.10;99.90
10788;DHT22;5446;50.826;4.380;2023-04-24T01:07:47;9.10;99.90
10788;DHT22;5446;50.826;4.380;2023-04-24T01:10:14;9.00;99.90
10788;DHT22;5446;50.826;4.380;2023-04-24T01:12:40;9.00;99.90
10788;DHT22;5446;50.826;4.380;2023-04-24T01:15:07;9.10;99.90
10788;DHT22;5446;50.826;4.380;2023-04-24T01:17:33;9.00;99.90
10788;DHT22;5446;50.826;4.380;2023-04-24T01:20:00;9.00;99.90
10788;DHT22;5446;50.826;4.380;2023-04-24T01:22:26;8.90;99.90
10788;DHT22;5446;50.826;4.380;2023-04-24T01:24:53;8.90;99.90
10788;DHT22;5446;50.826;4.380;2023-04-24T01:27:19;8.90;99.90
10788;DHT22;5446;50.826;4.380;2023-04-24T01:29:45;8.80;99.90
10788;DHT22;5446;50.826;4.380;2023-04-24T01:32:13;8.80;99.90
10788;DHT22;5446;50.826;4.380;2023-04-24T01:34:38;8.80;99.90
10788;DHT22;5446;50.826;4.380;2023-04-24T01:37:05;8.80;99.90
10788;DHT22;5446;50.826;4.380;2023-04-24T01:39:31;8.80;99.90
10788;DHT22;5446;50.826;4.380;2023-04-24T01:41:59;8.80;99.90
10788;DHT22;5446;50.826;4.380;2023-04-24T01:44:26;8.80;99.90
10788;DHT22;5446;50.826;4.380;2023-04-24T01:46:52;8.70;99.90
10788;DHT22;5446;50.826;4.380;2023-04-24T01:49:19;8.70;99.90
10788;DHT22;5446;50.826;4.380;2023-04-24T01:51:45;8.70;99.90
10788;DHT22;5446;50.826;4.380;2023-04-24T01:54:12;8.70;99.90
10788;DHT22;5446;50.826;4.380;2023-04-24T01:56:41;8.80;99.90
10788;DHT22;5446;50.826;4.380;2023-04-24T01:59:09;8.70;99.90
10788;DHT22;5446;50.826;4.380;2023-04-24T02:01:37;8.70;99.90
10788;DHT22;5446;50.826;4.380;2023-04-24T02:04:03;8.70;99.90
10788;DHT22;5446;50.826;4.380;2023-04-24T02:06:30;8.60;99.90
10788;DHT22;5446;50.826;4.380;2023-04-24T02:08:58;8.70;99.90
10788;DHT22;5446;50.826;4.380;2023-04-24T02:11:24;8.70;99.90
10788;DHT22;5446;50.826;4.380;2023-04-24T02:13:50;8.70;99.90
10788;DHT22;5446;50.826;4.380;2023-04-24T02:16:17;8.70;99.90
10788;DHT22;5446;50.826;4.380;2023-04-24T02:18:43;8.70;99.90
10788;DHT22;5446;50.826;4.380;2023-04-24T02:21:09;8.70;99.90
10788;DHT22;5446;50.826;4.380;2023-04-24T02:23:35;8.70;99.90
10788;DHT22;5446;50.826;4.380;2023-04-24T02:26:01;8.60;99.90
10788;DHT22;5446;50.826;4.380;2023-04-24T02:28:27;8.60;99.90
10788;DHT22;5446;50.826;4.380;2023-04-24T02:30:52;8.50;99.90
10788;DHT22;5446;50.826;4.380;2023-04-24T02:33:18;8.50;99.90
10788;DHT22;5446;50.826;4.380;2023-04-24T02:35:44;8.50;99.90
10788;DHT22;5446;50.826;4.380;2023-04-24T02:38:10;8.60;99.90
10788;DHT22;5446;50.826;4.380;2023-04-24T02:40:35;8.60;99.90
10788;DHT22;5446;50.826;4.380;2023-04-24T02:43:01;8.60;99.90
10788;DHT22;5446;50.826;4.380;2023-04-24T02:45:27;8.60;99.90
10788;DHT22;5446;50.826;4.380;2023-04-24T02:47:52;8.60;99.90
10788;DHT22;5446;50.826;4.380;2023-04-24T02:50:18;8.60;99.90
10788;DHT22;5446;50.826;4.380;2023-04-24T02:52:44;8.60;99.90
10788;DHT22;5446;50.826;4.380;2023-04-24T02:55:10;8.60;99.90
10788;DHT22;5446;50.826;4.380;2023-04-24T02:57:35;8.60;99.90
10788;DHT22;5446;50.826;4.380;2023-04-24T03:00:01;8.60;99.90
10788;DHT22;5446;50.826;4.380;2023-04-24T03:02:28;8.60;99.90
10788;DHT22;5446;50.826;4.380;2023-04-24T03:04:54;8.60;99.90
10788;DHT22;5446;50.826;4.380;2023-04-24T03:07:20;8.50;99.90
10788;DHT22;5446;50.826;4.380;2023-04-24T03:09:46;8.50;99.90
10788;DHT22;5446;50.826;4.380;2023-04-24T03:12:13;8.50;99.90
10788;DHT22;5446;50.826;4.380;2023-04-24T03:14:38;8.50;99.90
10788;DHT22;5446;50.826;4.380;2023-04-24T03:17:04;8.50;99.90
10788;DHT22;5446;50.826;4.380;2023-04-24T03:19:30;8.50;99.90
10788;DHT22;5446;50.826;4.380;2023-04-24T03:21:56;8.50;99.90
10788;DHT22;5446;50.826;4.380;2023-04-24T03:24:21;8.50;99.90
10788;DHT22;5446;50.826;4.380;2023-04-24T03:26:48;8.50;99.90
10788;DHT22;5446;50.826;4.380;2023-04-24T03:29:13;8.50;99.90
10788;DHT22;5446;50.826;4.380;2023-04-24T03:31:39;8.50;99.90
10788;DHT22;5446;50.826;4.380;2023-04-24T03:34:05;8.50;99.90
10788;DHT22;5446;50.826;4.380;2023-04-24T03:36:30;8.50;99.90
10788;DHT22;5446;50.826;4.380;2023-04-24T03:38:57;8.40;99.90
10788;DHT22;5446;50.826;4.380;2023-04-24T03:41:22;8.40;99.90
10788;DHT22;5446;50.826;4.380;2023-04-24T03:43:48;8.40;99.90
10788;DHT22;5446;50.826;4.380;2023-04-24T03:46:14;8.40;99.90
10788;DHT22;5446;50.826;4.380;2023-04-24T03:48:40;8.50;99.90
10788;DHT22;5446;50.826;4.380;2023-04-24T03:51:06;8.50;99.90
10788;DHT22;5446;50.826;4.380;2023-04-24T03:53:32;8.40;99.90
10788;DHT22;5446;50.826;4.380;2023-04-24T03:55:57;8.50;99.90
10788;DHT22;5446;50.826;4.380;2023-04-24T03:58:23;8.50;99.90
10788;DHT22;5446;50.826;4.380;2023-04-24T04:00:49;8.50;99.90
10788;DHT22;5446;50.826;4.380;2023-04-24T04:03:15;8.60;99.90
10788;DHT22;5446;50.826;4.380;2023-04-24T04:05:41;8.60;99.90
10788;DHT22;5446;50.826;4.380;2023-04-24T04:08:07;8.60;99.90
10788;DHT22;5446;50.826;4.380;2023-04-24T04:10:33;8.60;99.90
10788;DHT22;5446;50.826;4.380;2023-04-24T04:12:58;8.60;99.90
10788;DHT22;5446;50.826;4.380;2023-04-24T04:15:24;8.60;99.90
10788;DHT22;5446;50.826;4.380;2023-04-24T04:17:50;8.60;99.90
10788;DHT22;5446;50.826;4.380;2023-04-24T04:20:16;8.60;99.90
10788;DHT22;5446;50.826;4.380;2023-04-24T04:22:42;8.60;99.90
10788;DHT22;5446;50.826;4.380;2023-04-24T04:25:08;8.60;99.90
10788;DHT22;5446;50.826;4.380;2023-04-24T04:27:34;8.60;99.90
10788;DHT22;5446;50.826;4.380;2023-04-24T04:30:04;8.60;99.90
10788;DHT22;5446;50.826;4.380;2023-04-24T04:32:33;8.60;99.90
10788;DHT22;5446;50.826;4.380;2023-04-24T04:35:03;8.60;99.90
10788;DHT22;5446;50.826;4.380;2023-04-24T04:37:30;8.60;99.90
10788;DHT22;5446;50.826;4.380;2023-04-24T04:39:57;8.60;99.90
10788;DHT22;5446;50.826;4.380;2023-04-24T04:42:26;8.50;99.90
10788;DHT22;5446;50.826;4.380;2023-04-24T04:44:56;8.50;99.90
10788;DHT22;5446;50.826;4.380;2023-04-24T04:47:23;8.60;99.90
10788;DHT22;5446;50.826;4.380;2023-04-24T04:49:49;8.60;99.90
10788;DHT22;5446;50.826;4.380;2023-04-24T04:52:17;8.60;99.90
10788;DHT22;5446;50.826;4.380;2023-04-24T04:54:43;8.50;99.90
10788;DHT22;5446;50.826;4.380;2023-04-24T04:57:09;8.50;99.90
10788;DHT22;5446;50.826;4.380;2023-04-24T04:59:35;8.50;99.90
10788;DHT22;5446;50.826;4.380;2023-04-24T05:02:01;8.50;99.90
10788;DHT22;5446;50.826;4.380;2023-04-24T05:04:27;8.50;99.90
10788;DHT22;5446;50.826;4.380;2023-04-24T05:06:53;8.50;99.90
10788;DHT22;5446;50.826;4.380;2023-04-24T05:09:18;8.50;99.90
10788;DHT22;5446;50.826;4.380;2023-04-24T05:11:44;8.40;99.90
10788;DHT22;5446;50.826;4.380;2023-04-24T05:14:10;8.40;99.90
10788;DHT22;5446;50.826;4.380;2023-04-24T05:16:38;8.50;99.90
10788;DHT22;5446;50.826;4.380;2023-04-24T05:19:04;8.50;99.90
10788;DHT22;5446;50.826;4.380;2023-04-24T05:21:31;8.50;99.90
10788;DHT22;5446;50.826;4.380;2023-04-24T05:23:57;8.40;99.90
10788;DHT22;5446;50.826;4.380;2023-04-24T05:26:23;8.40;99.90
10788;DHT22;5446;50.826;4.380;2023-04-24T05:28:49;8.40;99.90
10788;DHT22;5446;50.826;4.380;2023-04-24T05:31:15;8.40;99.90
10788;DHT22;5446;50.826;4.380;2023-04-24T05:33:43;8.40;99.90
10788;DHT22;5446;50.826;4.380;2023-04-24T05:36:09;8.40;99.90
10788;DHT22;5446;50.826;4.380;2023-04-24T05:38:35;8.40;99.90
10788;DHT22;5446;50.826;4.380;2023-04-24T05:41:01;8.40;99.90
10788;DHT22;5446;50.826;4.380;2023-04-24T05:43:27;8.40;99.90
10788;DHT22;5446;50.826;4.380;2023-04-24T05:45:53;8.40;99.90
10788;DHT22;5446;50.826;4.380;2023-04-24T05:48:19;8.40;99.90
10788;DHT22;5446;50.826;4.380;2023-04-24T05:50:45;8.40;99.90
10788;DHT22;5446;50.826;4.380;2023-04-24T05:53:12;8.40;99.90
10788;DHT22;5446;50.826;4.380;2023-04-24T05:55:38;8.40;99.90
10788;DHT22;5446;50.826;4.380;2023-04-24T05:58:04;8.30;99.90
10788;DHT22;5446;50.826;4.380;2023-04-24T06:00:31;8.30;99.90
10788;DHT22;5446;50.826;4.380;2023-04-24T06:03:00;8.30;99.90
10788;DHT22;5446;50.826;4.380;2023-04-24T06:05:26;8.40;99.90
10788;DHT22;5446;50.826;4.380;2023-04-24T06:07:52;8.30;99.90
10788;DHT22;5446;50.826;4.380;2023-04-24T06:10:19;8.30;99.90
10788;DHT22;5446;50.826;4.380;2023-04-24T06:12:45;8.30;99.90
10788;DHT22;5446;50.826;4.380;2023-04-24T06:15:11;8.30;99.90
10788;DHT22;5446;50.826;4.380;2023-04-24T06:17:37;8.30;99.90
10788;DHT22;5446;50.826;4.380;2023-04-24T06:20:03;8.30;99.90
10788;DHT22;5446;50.826;4.380;2023-04-24T06:22:31;8.30;99.90
10788;DHT22;5446;50.826;4.380;2023-04-24T06:24:57;8.30;99.90
10788;DHT22;5446;50.826;4.380;2023-04-24T06:27:23;8.30;99.90
10788;DHT22;5446;50.826;4.380;2023-04-24T06:29:48;8.30;99.90
10788;DHT22;5446;50.826;4.380;2023-04-24T06:32:23;8.30;99.90
10788;DHT22;5446;50.826;4.380;2023-04-24T06:34:51;8.40;99.90
10788;DHT22;5446;50.826;4.380;2023-04-24T06:37:19;8.30;99.90
10788;DHT22;5446;50.826;4.380;2023-04-24T06:39:46;8.30;99.90
10788;DHT22;5446;50.826;4.380;2023-04-24T06:42:12;8.30;99.90
10788;DHT22;5446;50.826;4.380;2023-04-24T06:44:39;8.30;99.90
10788;DHT22;5446;50.826;4.380;2023-04-24T06:47:11;8.40;99.90
10788;DHT22;5446;50.826;4.380;2023-04-24T06:49:41;8.40;99.90
10788;DHT22;5446;50.826;4.380;2023-04-24T06:52:07;8.50;99.90
10788;DHT22;5446;50.826;4.380;2023-04-24T06:54:33;8.50;99.90
10788;DHT22;5446;50.826;4.380;2023-04-24T06:57:00;8.50;99.90
10788;DHT22;5446;50.826;4.380;2023-04-24T06:59:26;8.50;99.90
10788;DHT22;5446;50.826;4.380;2023-04-24T07:01:54;8.60;99.90
10788;DHT22;5446;50.826;4.380;2023-04-24T07:04:20;8.70;99.90
10788;DHT22;5446;50.826;4.380;2023-04-24T07:06:46;8.70;99.90
10788;DHT22;5446;50.826;4.380;2023-04-24T07:09:12;8.70;99.90
10788;DHT22;5446;50.826;4.380;2023-04-24T07:11:41;8.70;99.90
10788;DHT22;5446;50.826;4.380;2023-04-24T07:14:07;8.70;99.90
10788;DHT22;5446;50.826;4.380;2023-04-24T07:16:34;8.70;99.90
10788;DHT22;5446;50.826;4.380;2023-04-24T07:19:00;8.70;99.90
10788;DHT22;5446;50.826;4.380;2023-04-24T07:21:25;8.80;99.90
10788;DHT22;5446;50.826;4.380;2023-04-24T07:23:52;8.90;99.90
10788;DHT22;5446;50.826;4.380;2023-04-24T07:26:19;9.00;99.90
10788;DHT22;5446;50.826;4.380;2023-04-24T07:28:46;9.00;99.90
10788;DHT22;5446;50.826;4.380;2023-04-24T07:31:12;9.10;99.90
10788;DHT22;5446;50.826;4.380;2023-04-24T07:33:38;9.10;99.90
10788;DHT22;5446;50.826;4.380;2023-04-24T07:36:04;9.10;99.90
10788;DHT22;5446;50.826;4.380;2023-04-24T07:38:30;9.20;99.90
10788;DHT22;5446;50.826;4.380;2023-04-24T07:40:56;9.30;99.90
10788;DHT22;5446;50.826;4.380;2023-04-24T07:43:22;9.10;99.90
10788;DHT22;5446;50.826;4.380;2023-04-24T07:45:52;9.10;99.90
10788;DHT22;5446;50.826;4.380;2023-04-24T07:48:18;9.00;99.90
10788;DHT22;5446;50.826;4.380;2023-04-24T07:50:44;9.00;99.90
10788;DHT22;5446;50.826;4.380;2023-04-24T07:53:10;9.10;99.90
10788;DHT22;5446;50.826;4.380;2023-04-24T07:55:36;9.10;99.90
10788;DHT22;5446;50.826;4.380;2023-04-24T07:58:02;9.20;99.90
10788;DHT22;5446;50.826;4.380;2023-04-24T08:00:28;9.40;99.90
10788;DHT22;5446;50.826;4.380;2023-04-24T08:02:54;9.40;99.90
10788;DHT22;5446;50.826;4.380;2023-04-24T08:05:19;9.40;99.90
10788;DHT22;5446;50.826;4.380;2023-04-24T08:07:46;9.30;99.90
10788;DHT22;5446;50.826;4.380;2023-04-24T08:10:14;9.40;99.90
10788;DHT22;5446;50.826;4.380;2023-04-24T08:12:40;9.40;99.90
10788;DHT22;5446;50.826;4.380;2023-04-24T08:15:06;9.30;99.90
10788;DHT22;5446;50.826;4.380;2023-04-24T08:17:34;9.40;99.90
10788;DHT22;5446;50.826;4.380;2023-04-24T08:20:00;9.50;99.90
10788;DHT22;5446;50.826;4.380;2023-04-24T08:22:29;9.60;99.90
10788;DHT22;5446;50.826;4.380;2023-04-24T08:24:56;9.60;99.90
10788;DHT22;5446;50.826;4.380;2023-04-24T08:27:23;9.70;99.90
10788;DHT22;5446;50.826;4.380;2023-04-24T08:29:49;9.80;99.90
10788;DHT22;5446;50.826;4.380;2023-04-24T08:32:15;9.80;99.90
10788;DHT22;5446;50.826;4.380;2023-04-24T08:34:41;9.90;99.90
10788;DHT22;5446;50.826;4.380;2023-04-24T08:37:07;9.90;99.90
10788;DHT22;5446;50.826;4.380;2023-04-24T08:39:33;9.90;99.90
10788;DHT22;5446;50.826;4.380;2023-04-24T08:42:00;10.00;99.90
10788;DHT22;5446;50.826;4.380;2023-04-24T08:44:32;9.90;99.90
10788;DHT22;5446;50.826;4.380;2023-04-24T08:46:58;10.10;99.90
10788;DHT22;5446;50.826;4.380;2023-04-24T08:49:25;10.20;99.90
10788;DHT22;5446;50.826;4.380;2023-04-24T08:51:53;10.30;99.90
10788;DHT22;5446;50.826;4.380;2023-04-24T08:54:19;10.40;99.90
10788;DHT22;5446;50.826;4.380;2023-04-24T08:56:45;10.50;99.90
10788;DHT22;5446;50.826;4.380;2023-04-24T08:59:14;10.50;99.90
10788;DHT22;5446;50.826;4.380;2023-04-24T09:01:40;10.60;99.90
10788;DHT22;5446;50.826;4.380;2023-04-24T09:04:07;10.70;99.90
10788;DHT22;5446;50.826;4.380;2023-04-24T09:06:35;10.60;99.90
10788;DHT22;5446;50.826;4.380;2023-04-24T09:09:02;10.60;99.90
10788;DHT22;5446;50.826;4.380;2023-04-24T09:11:30;10.80;99.90
10788;DHT22;5446;50.826;4.380;2023-04-24T09:13:57;11.10;99.90
10788;DHT22;5446;50.826;4.380;2023-04-24T09:16:25;11.10;99.90
10788;DHT22;5446;50.826;4.380;2023-04-24T09:18:51;11.20;99.90
10788;DHT22;5446;50.826;4.380;2023-04-24T09:21:18;11.30;99.90
10788;DHT22;5446;50.826;4.380;2023-04-24T09:23:45;11.10;99.90
10788;DHT22;5446;50.826;4.380;2023-04-24T09:26:11;11.00;99.90
10788;DHT22;5446;50.826;4.380;2023-04-24T09:28:39;10.90;99.90
10788;DHT22;5446;50.826;4.380;2023-04-24T09:31:12;10.80;99.90
10788;DHT22;5446;50.826;4.380;2023-04-24T09:33:40;10.70;99.90
10788;DHT22;5446;50.826;4.380;2023-04-24T09:36:08;10.50;99.90
10788;DHT22;5446;50.826;4.380;2023-04-24T09:38:36;10.40;99.90
10788;DHT22;5446;50.826;4.380;2023-04-24T09:41:05;10.50;99.90
10788;DHT22;5446;50.826;4.380;2023-04-24T09:43:31;10.80;99.90
10788;DHT22;5446;50.826;4.380;2023-04-24T09:45:58;10.80;99.90
10788;DHT22;5446;50.826;4.380;2023-04-24T09:48:34;11.00;99.90
10788;DHT22;5446;50.826;4.380;2023-04-24T09:51:02;11.20;99.90
10788;DHT22;5446;50.826;4.380;2023-04-24T09:53:29;11.10;99.90
10788;DHT22;5446;50.826;4.380;2023-04-24T09:56:09;10.90;99.90
10788;DHT22;5446;50.826;4.380;2023-04-24T09:58:36;10.90;99.90
10788;DHT22;5446;50.826;4.380;2023-04-24T10:01:02;10.90;99.90
10788;DHT22;5446;50.826;4.380;2023-04-24T10:03:32;10.80;99.90
10788;DHT22;5446;50.826;4.380;2023-04-24T10:06:02;11.00;99.90
10788;DHT22;5446;50.826;4.380;2023-04-24T10:08:37;11.10;99.90
10788;DHT22;5446;50.826;4.380;2023-04-24T10:11:03;11.10;99.90
10788;DHT22;5446;50.826;4.380;2023-04-24T10:13:29;11.00;99.90
10788;DHT22;5446;50.826;4.380;2023-04-24T10:15:56;11.00;99.90
10788;DHT22;5446;50.826;4.380;2023-04-24T10:18:25;11.00;99.90
10788;DHT22;5446;50.826;4.380;2023-04-24T10:20:52;11.00;99.90
10788;DHT22;5446;50.826;4.380;2023-04-24T10:23:20;10.90;99.90
10788;DHT22;5446;50.826;4.380;2023-04-24T10:25:46;10.90;99.90
10788;DHT22;5446;50.826;4.380;2023-04-24T10:28:12;10.80;99.90
10788;DHT22;5446;50.826;4.380;2023-04-24T10:30:39;10.80;99.90
10788;DHT22;5446;50.826;4.380;2023-04-24T10:33:08;10.80;99.90
10788;DHT22;5446;50.826;4.380;2023-04-24T10:35:38;10.80;99.90
10788;DHT22;5446;50.826;4.380;2023-04-24T10:38:17;10.80;99.90
10788;DHT22;5446;50.826;4.380;2023-04-24T10:40:43;11.00;99.90
10788;DHT22;5446;50.826;4.380;2023-04-24T10:43:09;11.20;99.90
10788;DHT22;5446;50.826;4.380;2023-04-24T10:45:37;11.20;99.90
10788;DHT22;5446;50.826;4.380;2023-04-24T10:48:05;11.20;99.90
10788;DHT22;5446;50.826;4.380;2023-04-24T10:50:52;11.30;99.90
10788;DHT22;5446;50.826;4.380;2023-04-24T10:53:20;11.60;99.90
10788;DHT22;5446;50.826;4.380;2023-04-24T10:56:08;11.80;99.90
10788;DHT22;5446;50.826;4.380;2023-04-24T10:59:07;12.00;99.90
10788;DHT22;5446;50.826;4.380;2023-04-24T11:01:38;11.80;99.90
10788;DHT22;5446;50.826;4.380;2023-04-24T11:04:04;11.50;99.90
10788;DHT22;5446;50.826;4.380;2023-04-24T11:06:34;11.60;99.90
10788;DHT22;5446;50.826;4.380;2023-04-24T11:09:05;11.60;99.90
10788;DHT22;5446;50.826;4.380;2023-04-24T11:11:32;11.60;99.90
10788;DHT22;5446;50.826;4.380;2023-04-24T11:32:52;12.00;99.90
10788;DHT22;5446;50.826;4.380;2023-04-24T11:37:47;11.80;99.90
10788;DHT22;5446;50.826;4.380;2023-04-24T11:40:17;11.70;99.90
10788;DHT22;5446;50.826;4.380;2023-04-24T11:42:46;11.80;99.90
10788;DHT22;5446;50.826;4.380;2023-04-24T11:45:23;11.80;99.90
10788;DHT22;5446;50.826;4.380;2023-04-24T11:47:50;11.80;99.90
10788;DHT22;5446;50.826;4.380;2023-04-24T11:50:18;11.80;99.90
10788;DHT22;5446;50.826;4.380;2023-04-24T11:52:46;11.90;99.90
10788;DHT22;5446;50.826;4.380;2023-04-24T11:57:51;12.30;99.90
10788;DHT22;5446;50.826;4.380;2023-04-24T12:02:45;12.40;99.90
10788;DHT22;5446;50.826;4.380;2023-04-24T12:05:25;12.50;99.90
10788;DHT22;5446;50.826;4.380;2023-04-24T12:07:51;12.50;99.90
10788;DHT22;5446;50.826;4.380;2023-04-24T12:10:21;12.50;99.90
10788;DHT22;5446;50.826;4.380;2023-04-24T12:12:47;12.30;99.90
10788;DHT22;5446;50.826;4.380;2023-04-24T12:15:16;12.30;99.90
10788;DHT22;5446;50.826;4.380;2023-04-24T12:17:42;12.40;99.90
10788;DHT22;5446;50.826;4.380;2023-04-24T12:20:09;12.50;99.90
10788;DHT22;5446;50.826;4.380;2023-04-24T12:22:55;12.40;99.90
10788;DHT22;5446;50.826;4.380;2023-04-24T12:25:25;12.20;99.90
10788;DHT22;5446;50.826;4.380;2023-04-24T12:30:32;12.00;99.90
10788;DHT22;5446;50.826;4.380;2023-04-24T12:33:00;12.20;99.90
10788;DHT22;5446;50.826;4.380;2023-04-24T12:35:28;12.30;99.90
10788;DHT22;5446;50.826;4.380;2023-04-24T12:37:54;12.20;99.90
10788;DHT22;5446;50.826;4.380;2023-04-24T12:40:25;12.10;99.90
10788;DHT22;5446;50.826;4.380;2023-04-24T12:42:51;12.00;99.90
10788;DHT22;5446;50.826;4.380;2023-04-24T12:45:18;12.20;99.90
10788;DHT22;5446;50.826;4.380;2023-04-24T12:47:45;12.30;99.90
10788;DHT22;5446;50.826;4.380;2023-04-24T12:50:12;12.40;99.90
10788;DHT22;5446;50.826;4.380;2023-04-24T12:52:39;12.70;99.90
10788;DHT22;5446;50.826;4.380;2023-04-24T12:55:06;12.80;99.90
10788;DHT22;5446;50.826;4.380;2023-04-24T12:57:35;12.80;99.90
10788;DHT22;5446;50.826;4.380;2023-04-24T13:00:01;13.10;99.90
10788;DHT22;5446;50.826;4.380;2023-04-24T13:02:29;12.80;99.90
10788;DHT22;5446;50.826;4.380;2023-04-24T13:04:56;12.70;99.90
10788;DHT22;5446;50.826;4.380;2023-04-24T13:07:22;12.60;99.90
10788;DHT22;5446;50.826;4.380;2023-04-24T13:09:49;12.50;99.90
10788;DHT22;5446;50.826;4.380;2023-04-24T13:12:15;12.50;99.90
10788;DHT22;5446;50.826;4.380;2023-04-24T13:14:41;12.50;99.90
10788;DHT22;5446;50.826;4.380;2023-04-24T13:17:07;12.80;99.90
10788;DHT22;5446;50.826;4.380;2023-04-24T13:19:38;12.70;99.90
10788;DHT22;5446;50.826;4.380;2023-04-24T13:22:05;12.70;99.90
10788;DHT22;5446;50.826;4.380;2023-04-24T13:24:31;12.80;99.90
10788;DHT22;5446;50.826;4.380;2023-04-24T13:26:58;13.00;99.90
10788;DHT22;5446;50.826;4.380;2023-04-24T13:29:24;13.20;99.90
10788;DHT22;5446;50.826;4.380;2023-04-24T13:31:54;13.10;99.90
10788;DHT22;5446;50.826;4.380;2023-04-24T13:34:21;13.40;99.90
10788;DHT22;5446;50.826;4.380;2023-04-24T13:36:47;13.50;99.90
10788;DHT22;5446;50.826;4.380;2023-04-24T13:39:13;13.50;99.90
10788;DHT22;5446;50.826;4.380;2023-04-24T13:41:39;13.20;99.90
10788;DHT22;5446;50.826;4.380;2023-04-24T13:44:06;13.10;99.90
10788;DHT22;5446;50.826;4.380;2023-04-24T13:46:31;13.10;99.90
10788;DHT22;5446;50.826;4.380;2023-04-24T13:48:58;13.10;99.90
10788;DHT22;5446;50.826;4.380;2023-04-24T13:51:25;13.10;99.90
10788;DHT22;5446;50.826;4.380;2023-04-24T13:53:54;13.20;99.90
10788;DHT22;5446;50.826;4.380;2023-04-24T13:56:21;13.20;99.90
10788;DHT22;5446;50.826;4.380;2023-04-24T13:58:48;13.20;99.90
10788;DHT22;5446;50.826;4.380;2023-04-24T14:01:14;13.20;99.90
10788;DHT22;5446;50.826;4.380;2023-04-24T14:03:41;13.10;99.90
10788;DHT22;5446;50.826;4.380;2023-04-24T14:06:07;12.80;99.90
10788;DHT22;5446;50.826;4.380;2023-04-24T14:08:32;12.70;99.90
10788;DHT22;5446;50.826;4.380;2023-04-24T14:10:58;12.70;99.90
10788;DHT22;5446;50.826;4.380;2023-04-24T14:13:24;12.70;99.90
10788;DHT22;5446;50.826;4.380;2023-04-24T14:15:51;12.80;99.90
10788;DHT22;5446;50.826;4.380;2023-04-24T14:18:18;12.90;99.90
10788;DHT22;5446;50.826;4.380;2023-04-24T14:20:44;12.70;99.90
10788;DHT22;5446;50.826;4.380;2023-04-24T14:23:10;12.70;99.90
10788;DHT22;5446;50.826;4.380;2023-04-24T14:25:36;12.80;99.90
10788;DHT22;5446;50.826;4.380;2023-04-24T14:28:01;12.90;99.90
10788;DHT22;5446;50.826;4.380;2023-04-24T14:30:27;12.90;99.90
10788;DHT22;5446;50.826;4.380;2023-04-24T14:32:53;12.90;99.90
10788;DHT22;5446;50.826;4.380;2023-04-24T14:35:19;12.70;99.90
10788;DHT22;5446;50.826;4.380;2023-04-24T14:37:45;12.70;99.90
10788;DHT22;5446;50.826;4.380;2023-04-24T14:40:11;12.60;99.90
10788;DHT22;5446;50.826;4.380;2023-04-24T14:42:36;12.70;99.90
10788;DHT22;5446;50.826;4.380;2023-04-24T14:45:02;12.50;99.90
10788;DHT22;5446;50.826;4.380;2023-04-24T14:47:28;12.50;99.90
10788;DHT22;5446;50.826;4.380;2023-04-24T14:49:54;12.50;99.90
10788;DHT22;5446;50.826;4.380;2023-04-24T14:52:20;12.40;99.90
10788;DHT22;5446;50.826;4.380;2023-04-24T14:54:46;12.50;99.90
10788;DHT22;5446;50.826;4.380;2023-04-24T14:57:12;12.50;99.90
10788;DHT22;5446;50.826;4.380;2023-04-24T14:59:38;12.40;99.90
10788;DHT22;5446;50.826;4.380;2023-04-24T15:02:04;12.50;99.90
10788;DHT22;5446;50.826;4.380;2023-04-24T15:04:30;12.50;99.90
10788;DHT22;5446;50.826;4.380;2023-04-24T15:06:56;12.50;99.90
10788;DHT22;5446;50.826;4.380;2023-04-24T15:09:23;12.60;99.90
10788;DHT22;5446;50.826;4.380;2023-04-24T15:11:49;12.60;99.90
10788;DHT22;5446;50.826;4.380;2023-04-24T15:14:16;12.50;99.90
10788;DHT22;5446;50.826;4.380;2023-04-24T15:16:42;12.60;99.90
10788;DHT22;5446;50.826;4.380;2023-04-24T15:19:08;12.50;99.90
10788;DHT22;5446;50.826;4.380;2023-04-24T15:21:36;12.40;99.90
10788;DHT22;5446;50.826;4.380;2023-04-24T15:24:01;12.40;99.90
10788;DHT22;5446;50.826;4.380;2023-04-24T15:26:27;12.40;99.90
10788;DHT22;5446;50.826;4.380;2023-04-24T15:28:53;12.40;99.90
10788;DHT22;5446;50.826;4.380;2023-04-24T15:31:19;12.40;99.90
10788;DHT22;5446;50.826;4.380;2023-04-24T15:33:45;12.30;99.90
10788;DHT22;5446;50.826;4.380;2023-04-24T15:36:11;12.40;99.90
10788;DHT22;5446;50.826;4.380;2023-04-24T15:38:37;12.30;99.90
10788;DHT22;5446;50.826;4.380;2023-04-24T15:41:03;12.40;99.90
10788;DHT22;5446;50.826;4.380;2023-04-24T15:43:29;12.40;99.90
10788;DHT22;5446;50.826;4.380;2023-04-24T15:45:57;12.20;99.90
10788;DHT22;5446;50.826;4.380;2023-04-24T15:48:22;12.30;99.90
10788;DHT22;5446;50.826;4.380;2023-04-24T15:50:48;12.40;99.90
10788;DHT22;5446;50.826;4.380;2023-04-24T15:53:14;12.10;99.90
10788;DHT22;5446;50.826;4.380;2023-04-24T15:55:50;11.90;99.90
10788;DHT22;5446;50.826;4.380;2023-04-24T15:58:16;11.80;99.90
10788;DHT22;5446;50.826;4.380;2023-04-24T16:00:42;11.90;99.90
10788;DHT22;5446;50.826;4.380;2023-04-24T16:03:08;11.80;99.90
10788;DHT22;5446;50.826;4.380;2023-04-24T16:05:34;11.80;99.90
10788;DHT22;5446;50.826;4.380;2023-04-24T16:08:00;11.90;99.90
10788;DHT22;5446;50.826;4.380;2023-04-24T16:10:26;11.70;99.90
10788;DHT22;5446;50.826;4.380;2023-04-24T16:12:52;11.70;99.90
10788;DHT22;5446;50.826;4.380;2023-04-24T16:15:20;11.80;99.90
10788;DHT22;5446;50.826;4.380;2023-04-24T16:17:46;11.90;99.90
10788;DHT22;5446;50.826;4.380;2023-04-24T16:20:13;12.10;99.90
10788;DHT22;5446;50.826;4.380;2023-04-24T16:22:39;12.20;99.90